Terminal Aerodrome Forecast
Issued by NWS

Current Version | Previous Version | Text Only | Print | Product List | Glossary On
Versions: 1 2 3 4 5 6 7 8 9 10 11 12 13 14
207
FTUS45 KABQ 301723
TAFROW
TAF
KROW 301723Z 3018/0118 15010KT P6SM SCT090
     FM010300 17008KT P6SM SCT120 SCT200
     FM011500 16013KT P6SM BKN120 BKN200=

USA.gov is the U.S. government's official web portal to all federal, state and local government web resources and services.